createdAt,value
2018-11-02T00:00:21.327Z,11.21
2018-11-02T00:01:21.286Z,11.27
2018-11-02T00:02:21.301Z,11.32
2018-11-02T00:03:21.314Z,11.28
2018-11-02T00:04:21.331Z,11.19
2018-11-02T00:05:21.345Z,11.39
2018-11-02T00:06:21.492Z,11.47
2018-11-02T00:07:21.374Z,11.38
2018-11-02T00:08:21.391Z,11.38
2018-11-02T00:09:21.406Z,11.46
2018-11-02T00:10:21.425Z,11.47
2018-11-02T00:11:21.440Z,11.46
2018-11-02T00:12:21.467Z,11.50
2018-11-02T00:13:21.473Z,11.49
2018-11-02T00:14:21.494Z,11.53
2018-11-02T00:15:21.503Z,11.52
2018-11-02T00:16:21.512Z,11.50
2018-11-02T00:17:21.547Z,11.56
2018-11-02T00:18:21.545Z,11.57
2018-11-02T00:19:21.565Z,11.61
2018-11-02T00:20:21.577Z,11.59
2018-11-02T00:21:21.592Z,11.52
2018-11-02T00:22:21.607Z,11.54
2018-11-02T00:23:21.622Z,11.62
2018-11-02T00:24:21.640Z,11.49
2018-11-02T00:25:21.649Z,11.59
2018-11-02T00:26:21.670Z,11.52
2018-11-02T00:27:21.685Z,11.49
2018-11-02T00:28:21.695Z,11.43
2018-11-02T00:29:21.713Z,11.59
2018-11-02T00:30:21.736Z,11.57
2018-11-02T00:31:21.743Z,11.59
2018-11-02T00:32:21.763Z,11.59
2018-11-02T00:33:21.781Z,11.56
2018-11-02T00:34:21.790Z,11.50
2018-11-02T00:35:21.806Z,11.61
2018-11-02T00:36:21.820Z,11.54
2018-11-02T00:37:21.837Z,11.62
2018-11-02T00:38:21.851Z,11.61
2018-11-02T00:39:21.870Z,11.59
2018-11-02T00:40:21.884Z,11.50
2018-11-02T00:41:21.898Z,11.57
2018-11-02T00:42:21.917Z,11.61
2018-11-02T00:43:21.926Z,11.56
2018-11-02T00:44:21.961Z,11.56
2018-11-02T00:45:21.962Z,11.59
2018-11-02T00:46:21.973Z,11.59
2018-11-02T00:47:21.991Z,11.65
2018-11-02T00:48:22.005Z,11.68
2018-11-02T00:49:22.026Z,11.74
2018-11-02T00:50:22.039Z,11.67
2018-11-02T00:51:22.054Z,11.67
2018-11-02T00:52:22.072Z,11.67
2018-11-02T00:53:22.085Z,11.70
2018-11-02T00:54:22.102Z,11.70
2018-11-02T00:55:22.113Z,11.74
2018-11-02T00:56:22.129Z,11.64
2018-11-02T00:57:22.143Z,11.65
2018-11-02T00:58:22.160Z,11.68
2018-11-02T00:59:22.191Z,11.74
2018-11-02T01:00:22.188Z,11.68
2018-11-02T01:01:22.205Z,11.59
2018-11-02T01:02:22.217Z,11.59
2018-11-02T01:03:22.240Z,11.54
2018-11-02T01:04:22.252Z,11.49
2018-11-02T01:05:22.267Z,11.50
2018-11-02T01:06:22.281Z,11.53
2018-11-02T01:07:22.295Z,11.65
2018-11-02T01:08:22.313Z,11.65
2018-11-02T01:09:22.342Z,11.56
2018-11-02T01:10:22.344Z,11.53
2018-11-02T01:11:22.363Z,11.62
2018-11-02T01:12:22.376Z,11.57
2018-11-02T01:13:22.392Z,11.67
2018-11-02T01:14:22.408Z,11.68
2018-11-02T01:15:22.418Z,11.67
2018-11-02T01:16:22.444Z,11.68
2018-11-02T01:17:22.452Z,11.65
2018-11-02T01:18:22.466Z,11.72
2018-11-02T01:19:22.489Z,11.78
2018-11-02T01:20:22.500Z,11.74
2018-11-02T01:21:22.514Z,11.83
2018-11-02T01:22:22.527Z,11.77
2018-11-02T01:23:22.548Z,11.77
2018-11-02T01:24:22.560Z,11.72
2018-11-02T01:25:22.575Z,11.72
2018-11-02T01:26:22.591Z,11.82
2018-11-02T01:27:22.611Z,11.75
2018-11-02T01:28:22.622Z,11.82
2018-11-02T01:29:22.639Z,11.77
2018-11-02T01:30:22.654Z,11.80
2018-11-02T01:31:22.672Z,11.71
2018-11-02T01:32:22.684Z,11.77
2018-11-02T01:33:22.704Z,11.80
2018-11-02T01:34:22.716Z,11.77
2018-11-02T01:35:22.735Z,11.78
2018-11-02T01:36:22.745Z,11.77
2018-11-02T01:37:22.766Z,11.77
2018-11-02T01:38:22.779Z,11.72
2018-11-02T01:39:22.793Z,11.75
2018-11-02T01:40:22.808Z,11.74
2018-11-02T01:41:22.824Z,11.74
2018-11-02T01:42:22.837Z,11.75
2018-11-02T01:43:22.867Z,11.71
2018-11-02T01:44:22.871Z,11.70
2018-11-02T01:45:22.884Z,11.70
2018-11-02T01:46:22.909Z,11.80
2018-11-02T01:47:22.916Z,11.75
2018-11-02T01:48:22.932Z,11.75
2018-11-02T01:49:22.955Z,11.75
2018-11-02T01:50:22.965Z,11.85
2018-11-02T01:51:22.990Z,11.77
2018-11-02T01:52:22.997Z,11.82
2018-11-02T01:53:23.007Z,11.82
2018-11-02T01:54:23.030Z,11.80
2018-11-02T01:55:23.044Z,11.77
2018-11-02T01:56:23.059Z,11.78
2018-11-02T01:57:23.071Z,11.80
2018-11-02T01:58:23.089Z,11.78
2018-11-02T01:59:23.104Z,11.71
2018-11-02T02:00:23.118Z,11.75
2018-11-02T02:01:23.134Z,11.72
2018-11-02T02:02:23.148Z,11.74
2018-11-02T02:03:23.163Z,11.71
2018-11-02T02:04:23.180Z,11.77
2018-11-02T02:05:23.196Z,11.78
2018-11-02T02:06:23.214Z,11.77
2018-11-02T02:07:23.238Z,11.75
2018-11-02T02:08:23.244Z,11.78
2018-11-02T02:09:23.262Z,11.77
2018-11-02T02:10:23.274Z,11.77
2018-11-02T02:11:23.284Z,11.80
2018-11-02T02:12:23.299Z,11.75
2018-11-02T02:13:23.465Z,11.78
2018-11-02T02:14:23.333Z,11.75
2018-11-02T02:15:23.350Z,11.59
2018-11-02T02:16:23.367Z,11.64
2018-11-02T02:17:23.389Z,11.72
2018-11-02T02:18:23.395Z,11.65
2018-11-02T02:19:23.412Z,11.68
2018-11-02T02:20:23.426Z,11.71
2018-11-02T02:21:23.440Z,11.77
2018-11-02T02:22:23.463Z,11.67
2018-11-02T02:23:23.476Z,11.57
2018-11-02T02:24:23.494Z,11.59
2018-11-02T02:25:23.502Z,11.57
2018-11-02T02:26:23.521Z,11.59
2018-11-02T02:27:23.532Z,11.54
2018-11-02T02:28:23.559Z,11.54
2018-11-02T02:29:23.567Z,11.56
2018-11-02T02:30:23.581Z,11.49
2018-11-02T02:31:23.595Z,11.54
2018-11-02T02:32:23.613Z,11.41
2018-11-02T02:33:23.631Z,11.50
2018-11-02T02:34:23.647Z,11.38
2018-11-02T02:35:23.659Z,11.34
2018-11-02T02:36:23.676Z,11.24
2018-11-02T02:37:23.684Z,11.25
2018-11-02T02:38:23.705Z,11.11
2018-11-02T02:39:23.720Z,11.03
2018-11-02T02:40:23.742Z,10.96
2018-11-02T02:41:23.751Z,10.99
2018-11-02T02:42:23.781Z,10.92
2018-11-02T02:43:23.783Z,10.88
2018-11-02T02:44:23.801Z,10.94
2018-11-02T02:45:23.811Z,10.94
2018-11-02T02:46:23.828Z,10.83
2018-11-02T02:47:23.840Z,10.92
2018-11-02T02:48:23.861Z,10.94
2018-11-02T02:49:23.870Z,10.91
2018-11-02T02:50:23.913Z,10.95
2018-11-02T02:51:23.908Z,10.99
2018-11-02T02:52:23.918Z,10.95
2018-11-02T02:53:23.937Z,11.01
2018-11-02T02:54:23.949Z,11.01
2018-11-02T02:55:23.962Z,11.02
2018-11-02T02:56:23.993Z,10.96
2018-11-02T02:57:23.995Z,10.99
2018-11-02T02:58:24.009Z,10.94
2018-11-02T02:59:24.028Z,11.10
2018-11-02T03:00:24.043Z,10.99
2018-11-02T03:01:24.058Z,11.06
2018-11-02T03:02:24.068Z,11.07
2018-11-02T03:03:24.088Z,10.99
2018-11-02T03:04:24.107Z,11.07
2018-11-02T03:05:24.126Z,11.06
2018-11-02T03:06:24.131Z,11.17
2018-11-02T03:07:24.148Z,11.06
2018-11-02T03:08:24.157Z,11.17
2018-11-02T03:38:23.664Z,11.07
2018-11-02T03:39:23.642Z,10.99
2018-11-02T03:41:15.561Z,10.96
2018-11-02T03:42:15.539Z,10.96
2018-11-02T03:44:07.444Z,10.92
2018-11-02T03:45:07.446Z,10.99
2018-11-02T03:46:59.389Z,10.96
2018-11-02T03:47:59.360Z,11.01
2018-11-02T03:49:51.271Z,10.98
2018-11-02T03:50:51.278Z,10.95
2018-11-02T03:52:43.202Z,10.95
2018-11-02T03:53:43.193Z,10.94
2018-11-02T03:55:35.113Z,10.94
2018-11-02T03:56:35.170Z,10.96
2018-11-02T03:58:27.065Z,10.88
2018-11-02T03:59:27.044Z,10.94
2018-11-02T04:01:18.996Z,10.99
2018-11-02T04:02:18.976Z,10.98
2018-11-02T04:04:10.889Z,10.92
2018-11-02T04:05:10.892Z,10.92
2018-11-02T04:07:02.849Z,10.92
2018-11-02T04:08:02.841Z,10.91
2018-11-02T04:09:54.751Z,10.86
2018-11-02T04:10:54.757Z,10.84
2018-11-02T04:12:46.692Z,10.83
2018-11-02T04:13:46.674Z,10.84
2018-11-02T04:15:38.588Z,10.84
2018-11-02T04:16:38.600Z,10.84
2018-11-02T04:18:30.521Z,10.86
2018-11-02T04:19:30.508Z,10.81
2018-11-02T04:21:22.935Z,10.88
2018-11-02T04:22:22.923Z,10.88
2018-11-02T04:24:14.832Z,10.86
2018-11-02T04:25:14.840Z,10.86
2018-11-02T04:27:06.780Z,10.68
2018-11-02T04:28:06.762Z,10.76
2018-11-02T04:29:58.670Z,10.76
2018-11-02T04:30:58.727Z,10.70
2018-11-02T04:32:50.619Z,10.77
2018-11-02T04:33:50.613Z,10.77
2018-11-02T04:35:42.523Z,10.73
2018-11-02T04:36:42.537Z,10.80
2018-11-02T04:38:34.472Z,10.71
2018-11-02T04:39:34.455Z,10.78
2018-11-02T04:41:26.383Z,10.74
2018-11-02T04:42:26.376Z,10.76
2018-11-02T04:44:18.295Z,10.74
2018-11-02T04:45:18.303Z,10.73
2018-11-02T04:47:10.232Z,10.68
2018-11-02T04:48:10.259Z,10.68
2018-11-02T04:50:02.141Z,10.68
2018-11-02T04:51:02.206Z,10.73
2018-11-02T04:52:54.073Z,10.66
2018-11-02T04:53:54.070Z,10.65
2018-11-02T04:55:45.987Z,10.71
2018-11-02T04:56:45.994Z,10.68
2018-11-02T04:58:37.926Z,10.59
2018-11-02T04:59:37.930Z,10.63
2018-11-02T05:01:29.850Z,10.58
2018-11-02T05:02:29.841Z,10.59
2018-11-02T05:04:21.763Z,10.56
2018-11-02T05:05:21.771Z,10.47
2018-11-02T05:07:13.723Z,10.58
2018-11-02T05:08:13.703Z,10.44
2018-11-02T05:10:05.627Z,10.59
2018-11-02T05:11:05.645Z,10.44
2018-11-02T05:12:57.571Z,10.44
2018-11-02T05:13:57.614Z,10.44
2018-11-02T05:15:49.464Z,10.47
2018-11-02T05:16:49.469Z,10.37
2018-11-02T05:18:41.406Z,10.47
2018-11-02T05:19:41.396Z,10.34
2018-11-02T05:21:33.306Z,10.47
2018-11-02T05:22:33.316Z,10.46
2018-11-02T05:24:25.252Z,10.44
2018-11-02T05:25:25.237Z,10.43
2018-11-02T05:27:17.183Z,10.46
2018-11-02T05:28:17.155Z,10.47
2018-11-02T05:30:09.564Z,10.46
2018-11-02T05:31:09.573Z,10.44
2018-11-02T05:33:01.503Z,10.40
2018-11-02T05:34:01.497Z,10.34
2018-11-02T05:35:53.405Z,10.34
2018-11-02T05:36:53.413Z,10.28
2018-11-02T05:38:45.351Z,10.21
2018-11-02T05:39:45.344Z,10.17
2018-11-02T05:41:37.254Z,10.15
2018-11-02T05:42:37.260Z,10.03
2018-11-02T05:44:29.202Z,10.03
2018-11-02T05:45:29.191Z,10.04
2018-11-02T05:47:21.189Z,9.91
2018-11-02T05:48:21.125Z,9.99
2018-11-02T05:50:13.044Z,9.85
2018-11-02T05:51:13.051Z,9.93
2018-11-02T05:53:04.976Z,9.82
2018-11-02T05:54:05.052Z,9.91
2018-11-02T05:55:56.877Z,9.89
2018-11-02T05:56:56.889Z,9.88
2018-11-02T05:58:48.812Z,9.88
2018-11-02T05:59:48.798Z,9.82
2018-11-02T06:01:40.826Z,9.86
2018-11-02T06:02:40.732Z,9.76
2018-11-02T06:04:32.675Z,9.71
2018-11-02T06:05:32.663Z,9.76
2018-11-02T06:07:24.628Z,9.64
2018-11-02T06:08:24.599Z,9.68
2018-11-02T06:10:17.003Z,9.60
2018-11-02T06:11:17.013Z,9.61
2018-11-02T06:13:08.938Z,9.52
2018-11-02T06:14:08.940Z,9.52
2018-11-02T06:16:00.853Z,9.42
2018-11-02T06:17:00.974Z,9.42
2018-11-02T06:18:52.893Z,9.52
2018-11-02T06:19:52.783Z,9.50
2018-11-02T06:21:44.742Z,9.50
2018-11-02T06:22:44.752Z,9.49
2018-11-02T06:24:36.686Z,9.49
2018-11-02T06:25:36.725Z,9.40
2018-11-02T06:27:28.615Z,9.48
2018-11-02T06:28:28.602Z,9.42
2018-11-02T06:30:20.541Z,9.50
2018-11-02T06:31:20.524Z,9.50
2018-11-02T06:33:12.445Z,9.52
2018-11-02T06:34:12.457Z,9.43
2018-11-02T06:36:04.357Z,9.52
2018-11-02T06:37:04.367Z,9.52
2018-11-02T06:38:56.475Z,9.57
2018-11-02T06:39:56.287Z,9.70
2018-11-02T06:41:48.235Z,9.58
2018-11-02T06:42:48.206Z,9.64
2018-11-02T06:44:40.211Z,9.60
2018-11-02T06:45:40.142Z,9.58
2018-11-02T06:47:32.083Z,9.57
2018-11-02T06:48:32.073Z,9.60
2018-11-02T06:50:23.982Z,9.71
2018-11-02T06:51:23.993Z,9.67
2018-11-02T06:53:15.928Z,9.78
2018-11-02T06:54:15.922Z,9.73
2018-11-02T06:56:07.831Z,9.75
2018-11-02T06:57:07.842Z,9.71
2018-11-02T06:59:00.281Z,9.66
2018-11-02T07:00:00.446Z,9.70
2018-11-02T07:01:52.168Z,9.58
2018-11-02T07:02:52.177Z,9.58
2018-11-02T07:04:44.114Z,9.60
2018-11-02T07:05:44.111Z,9.60
2018-11-02T07:07:36.239Z,9.56
2018-11-02T07:08:36.120Z,9.61
2018-11-02T07:10:27.947Z,9.60
2018-11-02T07:11:27.969Z,9.56
2018-11-02T07:13:20.488Z,9.48
2018-11-02T07:14:20.387Z,9.46
2018-11-02T07:16:12.412Z,9.56
2018-11-02T07:17:12.365Z,9.49
2018-11-02T07:19:04.275Z,9.60
2018-11-02T07:20:04.285Z,9.58
2018-11-02T07:21:56.176Z,9.70
2018-11-02T07:22:56.180Z,9.63
2018-11-02T07:24:48.119Z,9.83
2018-11-02T07:25:48.109Z,9.82
2018-11-02T07:27:40.064Z,9.86
2018-11-02T07:28:40.046Z,9.86
2018-11-02T07:30:31.967Z,9.97
2018-11-02T07:31:31.975Z,10.06
2018-11-02T07:33:23.907Z,10.17
2018-11-02T07:34:24.055Z,10.18
2018-11-02T07:36:15.816Z,10.19
2018-11-02T07:37:15.826Z,10.26
2018-11-02T07:39:07.784Z,10.26
2018-11-02T07:40:07.767Z,10.32
2018-11-02T07:41:59.716Z,10.28
2018-11-02T07:42:59.701Z,10.37
2018-11-02T07:44:51.680Z,10.37
2018-11-02T07:45:51.608Z,10.37
2018-11-02T07:47:43.558Z,10.37
2018-11-02T07:48:43.541Z,10.40
2018-11-02T07:50:35.470Z,10.59
2018-11-02T07:51:35.458Z,10.52
2018-11-02T07:53:27.881Z,10.39
2018-11-02T07:54:27.870Z,10.28
2018-11-02T07:56:19.777Z,10.19
2018-11-02T07:57:19.801Z,10.07
2018-11-02T07:59:11.719Z,10.01
2018-11-02T08:00:11.704Z,9.97
2018-11-02T08:02:03.734Z,10.12
2018-11-02T08:03:03.649Z,10.18
2018-11-02T08:04:55.576Z,10.19
2018-11-02T08:05:55.563Z,10.39
2018-11-02T08:07:47.475Z,10.30
2018-11-02T08:08:47.492Z,10.40
2018-11-02T08:10:39.455Z,10.51
2018-11-02T08:11:39.478Z,10.51
2018-11-02T08:13:31.361Z,10.43
2018-11-02T08:14:31.418Z,10.52
2018-11-02T08:15:31.384Z,10.56
2018-11-02T08:16:31.414Z,10.68
2018-11-02T08:17:31.408Z,10.65
2018-11-02T08:18:31.402Z,10.70
2018-11-02T08:19:31.422Z,10.73
2018-11-02T08:20:31.436Z,10.73
2018-11-02T08:21:31.465Z,10.78
2018-11-02T08:22:31.508Z,10.78
2018-11-02T08:23:31.480Z,10.78
2018-11-02T08:24:31.507Z,10.78
2018-11-02T08:25:31.517Z,10.83
2018-11-02T08:26:31.529Z,10.94
2018-11-02T08:27:31.546Z,10.96
2018-11-02T08:28:31.557Z,10.84
2018-11-02T08:29:31.571Z,10.81
2018-11-02T08:30:31.588Z,10.76
2018-11-02T08:31:31.600Z,10.59
2018-11-02T08:32:31.616Z,10.63
2018-11-02T08:33:31.640Z,10.52
2018-11-02T08:34:31.647Z,10.44
2018-11-02T08:35:31.662Z,10.32
2018-11-02T08:36:31.682Z,10.36
2018-11-02T08:37:31.707Z,10.19
2018-11-02T08:38:31.758Z,10.26
2018-11-02T08:39:31.722Z,10.10
2018-11-02T08:40:31.743Z,10.17
2018-11-02T08:41:31.772Z,10.18
2018-11-02T08:42:31.770Z,10.17
2018-11-02T08:43:31.776Z,10.14
2018-11-02T08:44:31.800Z,10.12
2018-11-02T08:45:31.913Z,10.12
2018-11-02T08:46:31.866Z,10.00
2018-11-02T08:47:31.900Z,10.01
2018-11-02T08:48:31.856Z,9.99
2018-11-02T08:49:31.869Z,9.93
2018-11-02T08:50:31.883Z,10.03
2018-11-02T08:51:31.904Z,9.96
2018-11-02T08:52:31.933Z,10.06
2018-11-02T08:53:31.925Z,10.04
2018-11-02T08:54:31.946Z,10.03
2018-11-02T08:55:31.956Z,10.01
2018-11-02T08:56:31.980Z,10.01
2018-11-02T08:57:32.039Z,10.04
2018-11-02T08:58:32.201Z,9.99
2018-11-02T08:59:32.223Z,10.06
2018-11-02T09:00:32.038Z,9.99
2018-11-02T09:01:32.052Z,10.00
2018-11-02T09:02:32.065Z,10.04
2018-11-02T09:03:32.214Z,10.06
2018-11-02T09:04:32.093Z,10.00
2018-11-02T09:05:32.103Z,10.01
2018-11-02T09:06:32.279Z,9.99
2018-11-02T09:07:32.140Z,10.00
2018-11-02T09:08:32.147Z,9.93
2018-11-02T09:09:32.184Z,9.97
2018-11-02T09:10:32.188Z,9.97
2018-11-02T09:11:32.199Z,9.94
2018-11-02T09:12:32.223Z,9.94
2018-11-02T09:13:32.253Z,9.86
2018-11-02T09:14:32.257Z,9.97
2018-11-02T09:15:32.256Z,9.97
2018-11-02T09:16:32.273Z,10.04
2018-11-02T09:17:32.288Z,10.15
2018-11-02T09:18:32.305Z,10.25
2018-11-02T09:19:32.413Z,10.33
2018-11-02T09:20:32.330Z,10.43
2018-11-02T09:21:32.340Z,10.42
2018-11-02T09:22:32.360Z,10.46
2018-11-02T09:23:32.386Z,10.46
2018-11-02T09:24:32.392Z,10.46
2018-11-02T09:25:32.416Z,10.58
2018-11-02T09:26:32.426Z,10.59
2018-11-02T09:27:32.563Z,10.70
2018-11-02T09:28:32.444Z,10.71
2018-11-02T09:29:32.548Z,10.74
2018-11-02T09:30:32.477Z,10.88
2018-11-02T09:31:32.506Z,10.88
2018-11-02T09:32:32.506Z,10.89
2018-11-02T09:33:32.525Z,10.98
2018-11-02T09:34:32.534Z,10.96
2018-11-02T09:35:32.555Z,10.99
2018-11-02T09:36:32.565Z,11.06
2018-11-02T09:37:32.612Z,11.14
2018-11-02T09:38:32.652Z,11.09
2018-11-02T09:39:32.630Z,11.19
2018-11-02T09:40:32.690Z,11.19
2018-11-02T09:41:32.646Z,11.25
2018-11-02T09:42:32.813Z,11.25
2018-11-02T09:43:32.701Z,11.24
2018-11-02T09:44:32.807Z,11.24
2018-11-02T09:45:32.796Z,11.21
2018-11-02T09:46:32.775Z,11.25
2018-11-02T09:47:32.819Z,11.36
2018-11-02T09:48:32.783Z,11.43
2018-11-02T09:49:32.763Z,11.43
2018-11-02T09:50:32.841Z,11.43
2018-11-02T09:51:32.817Z,11.36
2018-11-02T09:52:32.805Z,11.54
2018-11-02T09:53:32.860Z,11.47
2018-11-02T09:54:32.843Z,11.49
2018-11-02T09:55:32.861Z,11.50
2018-11-02T09:56:32.870Z,11.50
2018-11-02T09:57:32.934Z,11.46
2018-11-02T09:58:32.925Z,11.44
2018-11-02T09:59:32.927Z,11.52
2018-11-02T10:00:32.960Z,11.62
2018-11-02T10:01:33.006Z,11.64
2018-11-02T10:02:32.961Z,11.59
2018-11-02T10:03:33.005Z,11.65
2018-11-02T10:04:33.012Z,11.70
2018-11-02T10:05:33.024Z,11.74
2018-11-02T10:06:33.032Z,11.80
2018-11-02T10:07:33.048Z,11.77
2018-11-02T10:08:33.133Z,11.82
2018-11-02T10:09:33.072Z,11.83
2018-11-02T10:10:33.087Z,11.82
2018-11-02T10:11:33.108Z,11.86
2018-11-02T10:12:33.150Z,12.02
2018-11-02T10:13:33.141Z,11.97
2018-11-02T10:14:33.150Z,12.01
2018-11-02T10:15:33.175Z,11.97
2018-11-02T10:16:33.184Z,11.96
2018-11-02T10:17:33.202Z,12.21
2018-11-02T10:18:33.209Z,12.11
2018-11-02T10:19:33.232Z,12.12
2018-11-02T10:20:33.267Z,12.12
2018-11-02T10:21:33.257Z,12.21
2018-11-02T10:22:33.284Z,12.21
2018-11-02T10:23:33.331Z,12.30
2018-11-02T10:24:33.309Z,12.39
2018-11-02T10:25:33.320Z,12.38
2018-11-02T10:26:33.335Z,12.41
2018-11-02T10:27:33.363Z,12.45
2018-11-02T10:28:33.375Z,12.48
2018-11-02T10:29:33.385Z,12.44
2018-11-02T10:30:33.398Z,12.46
2018-11-02T10:31:33.422Z,12.51
2018-11-02T10:32:33.430Z,12.54
2018-11-02T10:33:33.449Z,12.57
2018-11-02T10:34:33.461Z,12.54
2018-11-02T10:35:33.514Z,12.64
2018-11-02T10:36:33.496Z,12.63
2018-11-02T10:37:33.517Z,12.77
2018-11-02T10:38:33.534Z,12.74
2018-11-02T10:39:33.599Z,12.84
2018-11-02T10:40:33.564Z,12.84
2018-11-02T10:41:33.580Z,12.93
2018-11-02T10:42:33.601Z,12.74
2018-11-02T10:43:33.619Z,12.74
2018-11-02T10:44:33.797Z,12.49
2018-11-02T10:45:33.647Z,12.56
2018-11-02T10:46:33.655Z,12.34
2018-11-02T10:47:33.679Z,12.37
2018-11-02T10:48:33.691Z,12.52
2018-11-02T10:49:33.759Z,12.59
2018-11-02T10:50:33.729Z,12.59
2018-11-02T10:51:33.738Z,12.69
2018-11-02T10:52:33.753Z,12.69
2018-11-02T10:53:33.770Z,12.71
2018-11-02T10:54:33.827Z,12.69
2018-11-02T10:55:33.802Z,12.49
2018-11-02T10:56:33.885Z,12.54
2018-11-02T10:57:33.843Z,12.46
2018-11-02T10:58:33.860Z,12.49
2018-11-02T10:59:33.871Z,12.48
2018-11-02T11:00:33.901Z,12.42
2018-11-02T11:01:33.983Z,12.31
2018-11-02T11:02:33.928Z,12.27
2018-11-02T11:03:33.933Z,12.33
2018-11-02T11:04:33.945Z,12.15
2018-11-02T11:05:34.119Z,12.19
2018-11-02T11:06:33.977Z,12.09
2018-11-02T11:07:34.000Z,11.97
2018-11-02T11:08:34.023Z,11.87
2018-11-02T11:09:34.097Z,11.82
2018-11-02T11:10:34.042Z,11.78
2018-11-02T11:11:34.075Z,11.71
2018-11-02T11:12:34.269Z,11.72
2018-11-02T11:13:34.386Z,11.65
2018-11-02T11:14:34.108Z,11.75
2018-11-02T11:15:34.137Z,11.70
2018-11-02T11:16:34.141Z,11.74
2018-11-02T11:17:34.159Z,11.74
2018-11-02T11:18:34.173Z,11.65
2018-11-02T11:19:34.199Z,11.71
2018-11-02T11:20:34.205Z,11.80
2018-11-02T11:21:34.289Z,11.97
2018-11-02T11:22:34.241Z,12.12
2018-11-02T11:23:34.251Z,12.13
2018-11-02T11:24:34.269Z,12.23
2018-11-02T11:25:34.294Z,12.45
2018-11-02T11:26:34.316Z,12.46
2018-11-02T11:27:34.313Z,12.57
2018-11-02T11:28:34.330Z,12.69
2018-11-02T11:29:34.469Z,12.70
2018-11-02T11:30:34.368Z,12.79
2018-11-02T11:31:34.377Z,12.93
2018-11-02T11:32:34.393Z,12.99
2018-11-02T11:33:34.411Z,13.11
2018-11-02T11:34:34.431Z,13.21
2018-11-02T11:35:34.458Z,13.29
2018-11-02T11:36:34.461Z,13.41
2018-11-02T11:37:34.488Z,13.54
2018-11-02T11:38:34.491Z,13.59
2018-11-02T11:39:34.531Z,13.80
2018-11-02T11:40:34.534Z,13.91
2018-11-02T11:41:34.551Z,13.98
2018-11-02T11:42:34.558Z,14.09
2018-11-02T11:43:34.581Z,14.14
2018-11-02T11:44:34.592Z,14.19
2018-11-02T11:45:34.654Z,13.87
2018-11-02T11:46:34.627Z,13.84
2018-11-02T11:47:34.639Z,13.67
2018-11-02T11:48:34.751Z,13.58
2018-11-02T11:49:34.674Z,13.58
2018-11-02T11:50:34.716Z,13.65
2018-11-02T11:51:34.711Z,13.47
2018-11-02T11:52:34.728Z,13.47
2018-11-02T11:53:34.760Z,13.30
2018-11-02T11:54:34.927Z,13.38
2018-11-02T11:55:34.787Z,13.33
2018-11-02T11:56:34.796Z,13.43
2018-11-02T11:57:34.811Z,13.38
2018-11-02T11:58:34.839Z,13.24
2018-11-02T11:59:34.846Z,13.15
2018-11-02T12:00:34.862Z,13.12
2018-11-02T12:01:34.909Z,13.07
2018-11-02T12:02:34.899Z,12.93
2018-11-02T12:03:34.919Z,12.92
2018-11-02T12:04:34.993Z,13.04
2018-11-02T12:05:34.952Z,13.09
2018-11-02T12:06:34.965Z,13.12
2018-11-02T12:07:35.034Z,13.22
2018-11-02T12:08:35.019Z,13.25
2018-11-02T12:09:35.014Z,13.43
2018-11-02T12:10:35.198Z,13.22
2018-11-02T12:11:35.069Z,13.03
2018-11-02T12:12:35.071Z,12.96
2018-11-02T12:13:35.089Z,12.95
2018-11-02T12:14:35.098Z,12.96
2018-11-02T12:15:35.119Z,13.02
2018-11-02T12:16:35.131Z,13.04
2018-11-02T12:17:35.156Z,12.92
2018-11-02T12:18:35.167Z,12.81
2018-11-02T12:19:35.183Z,12.70
2018-11-02T12:20:35.203Z,12.64
2018-11-02T12:21:35.225Z,12.57
2018-11-02T12:22:35.234Z,12.51
2018-11-02T12:23:35.280Z,12.41
2018-11-02T12:24:35.278Z,12.31
2018-11-02T12:25:35.281Z,12.23
2018-11-02T12:26:35.312Z,12.15
2018-11-02T12:27:35.316Z,12.11
2018-11-02T12:28:35.341Z,12.33
2018-11-02T12:29:35.355Z,12.37
2018-11-02T12:30:35.383Z,12.51
2018-11-02T12:31:35.385Z,12.49
2018-11-02T12:32:35.398Z,12.63
2018-11-02T12:33:35.415Z,12.51
2018-11-02T12:34:35.444Z,12.63
2018-11-02T12:35:35.448Z,12.74
2018-11-02T12:36:35.464Z,12.70
2018-11-02T12:37:35.491Z,12.82
2018-11-02T12:38:35.509Z,12.88
2018-11-02T12:41:31.751Z,13.04
2018-11-02T12:42:31.745Z,13.02
2018-11-02T12:44:24.189Z,12.75
2018-11-02T12:45:24.184Z,12.67
2018-11-02T12:47:16.126Z,12.52
2018-11-02T12:48:16.199Z,12.59
2018-11-02T12:50:08.226Z,12.27
2018-11-02T12:51:08.155Z,12.33
2018-11-02T12:53:00.196Z,12.24
2018-11-02T12:54:00.191Z,12.21
2018-11-02T12:55:52.235Z,12.09
2018-11-02T12:56:52.236Z,12.04
2018-11-02T12:58:44.249Z,11.85
2018-11-02T12:59:44.261Z,11.80
2018-11-02T13:01:36.298Z,11.75
2018-11-02T13:02:36.291Z,11.71
2018-11-02T13:04:28.226Z,11.70
2018-11-02T13:05:28.235Z,11.65
2018-11-02T13:07:20.185Z,11.65
2018-11-02T13:08:20.175Z,11.56
2018-11-02T13:10:12.181Z,11.74
2018-11-02T13:11:12.191Z,11.77
2018-11-02T13:13:04.243Z,11.75
2018-11-02T13:14:04.228Z,11.80
2018-11-02T13:15:56.414Z,11.99
2018-11-02T13:16:56.261Z,12.11
2018-11-02T13:18:48.721Z,11.99
2018-11-02T13:19:48.697Z,12.09
2018-11-02T13:21:41.228Z,12.11
2018-11-02T13:22:41.132Z,12.23
2018-11-02T13:24:33.051Z,12.23
2018-11-02T13:25:33.140Z,12.26
2018-11-02T13:27:25.094Z,12.39
2018-11-02T13:28:25.072Z,12.45
2018-11-02T13:30:17.196Z,12.54
2018-11-02T13:31:17.159Z,12.49
2018-11-02T13:33:09.055Z,12.54
2018-11-02T13:34:09.046Z,12.59
2018-11-02T13:36:00.987Z,12.67
2018-11-02T13:37:01.037Z,12.69
2018-11-02T13:38:52.909Z,12.64
2018-11-02T13:39:52.911Z,12.67
2018-11-02T13:41:44.850Z,12.67
2018-11-02T13:42:44.878Z,12.71
2018-11-02T13:44:36.774Z,12.70
2018-11-02T13:45:36.785Z,12.70
2018-11-02T13:47:28.770Z,12.74
2018-11-02T13:48:28.748Z,12.79
2018-11-02T13:50:20.784Z,12.75
2018-11-02T13:51:20.682Z,12.77
2018-11-02T13:53:12.623Z,12.93
2018-11-02T13:54:12.624Z,12.89
2018-11-02T13:56:04.583Z,12.79
2018-11-02T13:57:04.577Z,12.89
2018-11-02T13:58:56.578Z,12.84
2018-11-02T13:59:56.586Z,12.81
2018-11-02T14:01:48.488Z,12.64
2018-11-02T14:02:48.479Z,12.67
2018-11-02T14:04:40.414Z,12.67
2018-11-02T14:05:40.422Z,12.67
2018-11-02T14:07:32.863Z,12.52
2018-11-02T14:08:32.851Z,12.49
2018-11-02T14:10:24.774Z,12.37
2018-11-02T14:11:24.796Z,12.27
2018-11-02T14:13:16.726Z,12.31
2018-11-02T14:14:16.709Z,12.38
2018-11-02T14:16:08.682Z,12.20
2018-11-02T14:17:08.658Z,12.30
2018-11-02T14:19:00.699Z,12.30
2018-11-02T14:20:00.700Z,12.29
2018-11-02T14:21:53.166Z,12.33
2018-11-02T14:22:53.144Z,12.33
2018-11-02T14:24:45.077Z,12.23
2018-11-02T14:25:45.090Z,12.27
2018-11-02T14:27:37.054Z,12.26
2018-11-02T14:28:37.051Z,12.16
2018-11-02T14:30:28.974Z,12.24
2018-11-02T14:31:28.987Z,12.19
2018-11-02T14:33:21.003Z,12.21
2018-11-02T14:34:21.000Z,12.23
2018-11-02T14:36:13.539Z,12.20
2018-11-02T14:37:12.954Z,12.15
2018-11-02T14:39:05.009Z,12.11
2018-11-02T14:40:04.891Z,12.12
2018-11-02T14:41:56.903Z,12.13
2018-11-02T14:42:56.964Z,12.12
2018-11-02T14:44:49.332Z,12.16
2018-11-02T14:45:49.335Z,12.19
2018-11-02T14:47:41.422Z,12.20
2018-11-02T14:48:41.370Z,12.24
2018-11-02T14:50:33.428Z,12.21
2018-11-02T14:51:33.402Z,12.19
2018-11-02T14:52:33.419Z,12.19
2018-11-02T14:53:33.470Z,12.23
2018-11-02T14:54:33.452Z,12.09
2018-11-02T14:55:33.467Z,12.12
2018-11-02T14:56:33.484Z,11.97
2018-11-02T14:57:33.497Z,12.01
2018-11-02T14:58:33.512Z,11.93
2018-11-02T14:59:33.561Z,11.96
2018-11-02T15:00:33.545Z,11.96
2018-11-02T15:01:33.565Z,11.97
2018-11-02T15:02:33.579Z,11.97
2018-11-02T15:03:33.596Z,11.97
2018-11-02T15:04:33.608Z,11.97
2018-11-02T15:05:33.623Z,11.94
2018-11-02T15:06:33.637Z,11.96
2018-11-02T15:07:33.668Z,11.94
2018-11-02T15:08:33.674Z,11.89
2018-11-02T15:09:33.687Z,11.93
2018-11-02T15:10:33.708Z,11.87
2018-11-02T15:11:33.830Z,11.74
2018-11-02T15:12:33.742Z,11.75
2018-11-02T15:13:33.756Z,11.74
2018-11-02T15:14:33.767Z,11.74
2018-11-02T15:15:33.785Z,11.75
2018-11-02T15:16:33.802Z,11.65
2018-11-02T15:17:33.815Z,11.54
2018-11-02T15:18:33.833Z,11.67
2018-11-02T15:19:33.850Z,11.59
2018-11-02T15:20:33.867Z,11.54
2018-11-02T15:21:33.881Z,11.62
2018-11-02T15:22:33.896Z,11.50
2018-11-02T15:23:33.925Z,11.46
2018-11-02T15:24:33.929Z,11.44
2018-11-02T15:25:33.950Z,11.35
2018-11-02T15:26:34.000Z,11.39
2018-11-02T15:27:33.974Z,11.38
2018-11-02T15:28:33.997Z,11.34